Agulhas — ZSAF — position and weather

sailwx.info

Track history (hours):
 
Tides and Currents Weather Stations Pressure Air Temp Water Temp Dewpoint Dewpoint Depression Visibility Wind Speed Wind Dir Waves Ship Positions

Oceanographic research ship Agulhas (South Africa)

Detailed information on ship capabilities available from University of Delaware's Ocean Information Center.

Last reported at 2019-Dec-28 17:19 UTC. Time now 2020-Jan-24 05:01 UTC.
Position S 34°37' E 018°58'.
Warning: this ship's position is 26 days out of date.

Type: Cargo ship. MMSI: 601048000.

Date/timePositionNaut miles runAvg speedWind from/ knotsBaromVisibWave heightAir tempDewpointWater temp
2019-Dec-28 17:19S 34°37' E 018°58'7 8.8
2019-Dec-28 16:29S 34°34' E 018°50'4 8.3
2019-Dec-28 15:57S 34°33' E 018°45'7 7.6
2019-Dec-28 15:00S 34°29' E 018°37'13 6.4
2019-Dec-28 13:00S 34°24' E 018°23'9 5.9
2019-Dec-28 11:30S 34°18' E 018°15'25 6.1
2019-Dec-28 07:28S 33°55' E 018°27'0 0.0
2019-Dec-28 03:58S 33°55' E 018°27'0 0.0
2019-Dec-28 01:58S 33°55' E 018°27'0 0.0
2019-Dec-28 01:28S 33°55' E 018°27'0 0.0
2019-Dec-28 00:58S 33°55' E 018°27'0 0.0
2019-Dec-27 23:28S 33°55' E 018°27'0 0.0
2019-Dec-27 20:28S 33°55' E 018°27'0 0.0
2019-Dec-27 19:28S 33°55' E 018°27'0 0.0
2019-Dec-27 18:58S 33°55' E 018°27'0 0.0
2019-Dec-27 16:30S 33°55' E 018°27'0 0.0
2019-Dec-27 15:30S 33°55' E 018°27'0 0.0
2019-Dec-27 14:30S 33°55' E 018°27'0 0.0
2019-Dec-27 12:30S 33°55' E 018°27'0 0.0
2019-Dec-27 12:00S 33°55' E 018°27'0 0.0
2019-Dec-27 07:00S 33°55' E 018°27'0 0.0
2019-Dec-27 04:30S 33°55' E 018°27'0 0.0
2019-Dec-27 04:00S 33°55' E 018°27'0 0.0
2019-Dec-27 03:30S 33°55' E 018°27'0 0.0
2019-Dec-26 23:30S 33°55' E 018°27'0 0.0
2019-Dec-26 21:00S 33°55' E 018°27'0 0.0
2019-Dec-26 19:00S 33°55' E 018°27'0 0.0
2019-Dec-26 17:30S 33°55' E 018°27'0 0.0
2019-Dec-26 14:00S 33°55' E 018°27'0 0.0
2019-Dec-26 13:30S 33°55' E 018°27'0 0.0
2019-Dec-26 11:30S 33°55' E 018°27'0 0.0
2019-Dec-26 11:00S 33°55' E 018°27'0 0.0
2019-Dec-26 10:30S 33°55' E 018°27'0 0.0
2019-Dec-26 09:00S 33°55' E 018°27'0 0.0
2019-Dec-26 07:30S 33°55' E 018°27'0 0.0
2019-Dec-26 06:57S 33°55' E 018°27'0 0.0
2019-Dec-26 06:29S 33°55' E 018°27'0 0.0
2019-Dec-26 04:29S 33°55' E 018°27'0 0.0
2019-Dec-26 03:59S 33°55' E 018°27'0 0.0
2019-Dec-26 03:29S 33°55' E 018°27'0 0.0
2019-Dec-26 02:29S 33°55' E 018°27'0 0.0
2019-Dec-26 00:29S 33°55' E 018°27'0 0.0
2019-Dec-25 22:59S 33°55' E 018°27'0 0.0
2019-Dec-25 22:29S 33°55' E 018°27'0 0.0
2019-Dec-25 21:59S 33°55' E 018°27'0 0.0
2019-Dec-25 18:59S 33°55' E 018°27'0 0.0
2019-Dec-25 16:29S 33°55' E 018°27'0 0.0
2019-Dec-25 15:59S 33°55' E 018°27'0 0.0
2019-Dec-25 13:59S 33°55' E 018°27'0 0.0
2019-Dec-25 11:59S 33°55' E 018°27'0 0.0
2019-Dec-25 10:59S 33°55' E 018°27'0 0.0
2019-Dec-25 09:29S 33°55' E 018°27'0 0.0
2019-Dec-25 08:59S 33°55' E 018°27'0 0.0
2019-Dec-25 08:29S 33°55' E 018°27'0 0.0
2019-Dec-25 07:29S 33°55' E 018°27'0 0.0
2019-Dec-25 06:29S 33°55' E 018°27'0 0.0
2019-Dec-25 04:29S 33°55' E 018°27'0 0.0
2019-Dec-25 03:29S 33°55' E 018°27'0 0.0
2019-Dec-25 01:59S 33°55' E 018°27'0 0.0
2019-Dec-25 00:29S 33°55' E 018°27'0 0.0
2019-Dec-24 21:59S 33°55' E 018°27'0 0.0
2019-Dec-24 20:59S 33°55' E 018°27'0 0.0
2019-Dec-24 19:28S 33°55' E 018°27'0 0.0
2019-Dec-24 16:58S 33°55' E 018°27'0 0.0
2019-Dec-24 16:28S 33°55' E 018°27'0 0.0
2019-Dec-24 15:58S 33°55' E 018°27'0 0.0
2019-Dec-24 15:28S 33°55' E 018°27'0 0.0
2019-Dec-24 11:28S 33°55' E 018°27'0 0.0
2019-Dec-24 07:58S 33°55' E 018°27'0 0.0
2019-Dec-24 01:28S 33°55' E 018°27'0 0.0
2019-Dec-24 00:28S 33°55' E 018°27'0 0.0
2019-Dec-23 23:58S 33°55' E 018°27'0 0.0
2019-Dec-23 23:28S 33°55' E 018°27'0 0.0
2019-Dec-23 21:28S 33°55' E 018°27'0 0.0
2019-Dec-23 18:28S 33°55' E 018°27'0 0.0
2019-Dec-23 16:28S 33°55' E 018°27'0 0.0
2019-Dec-23 15:58S 33°55' E 018°27'0 0.0
2019-Dec-23 14:58S 33°55' E 018°27'0 0.0
2019-Dec-23 12:01S 33°55' E 018°27'0 0.0
2019-Dec-23 11:01S 33°55' E 018°27'0 0.0
2019-Dec-23 10:00S 33°55' E 018°27'0 0.0
2019-Dec-23 09:00S 33°55' E 018°27'0 0.0
2019-Dec-23 07:30S 33°55' E 018°27'0 0.0
2019-Dec-23 05:30S 33°55' E 018°27'0 0.0
2019-Dec-23 03:30S 33°55' E 018°27'0 0.0
2019-Dec-23 01:30S 33°55' E 018°27'0 0.0
2019-Dec-22 22:30S 33°55' E 018°27'0 0.0
2019-Dec-22 22:00S 33°55' E 018°27'0 0.0
2019-Dec-22 20:30S 33°55' E 018°27'0 0.0
2019-Dec-22 18:30S 33°55' E 018°27'0 0.0
2019-Dec-22 18:00S 33°55' E 018°27'0 0.0
2019-Dec-22 17:30S 33°55' E 018°27'0 0.0
2019-Dec-22 17:00S 33°55' E 018°27'0 0.0
2019-Dec-22 16:00S 33°55' E 018°27'0 0.0
2019-Dec-22 15:30S 33°55' E 018°27'0 0.0
2019-Dec-22 05:12S 33°55' E 018°27'0 0.0
2019-Dec-22 00:29S 33°55' E 018°27'0 0.0
2019-Dec-21 19:59S 33°55' E 018°27'0 0.0
2019-Dec-21 15:59S 33°55' E 018°27'0 0.0
2019-Dec-21 11:59S 33°55' E 018°27'0 0.0
2019-Dec-21 10:59S 33°55' E 018°27'0 0.0
2019-Dec-21 10:29S 33°55' E 018°27'0 0.0
2019-Dec-21 08:59S 33°55' E 018°27'0 0.0
2019-Dec-21 07:59S 33°55' E 018°27'0 0.0
2019-Dec-21 04:59S 33°55' E 018°27'0 0.0
2019-Dec-21 02:59S 33°55' E 018°27'0 0.0
2019-Dec-21 01:59S 33°55' E 018°27'0 0.0
2019-Dec-21 01:29S 33°55' E 018°27'0 0.0
2019-Dec-21 00:29S 33°55' E 018°27'0 0.0
2019-Dec-20 22:29S 33°55' E 018°27'0 0.0
2019-Dec-20 21:59S 33°55' E 018°27'0 0.0
2019-Dec-20 19:59S 33°55' E 018°27'0 0.0
2019-Dec-20 18:29S 33°55' E 018°27'0 0.0
2019-Dec-20 17:59S 33°55' E 018°27'0 0.0
2019-Dec-20 14:59S 33°55' E 018°27'0 0.0
2019-Dec-20 14:29S 33°55' E 018°27'0 0.0
2019-Dec-20 13:58S 33°55' E 018°27'0 0.0
2019-Dec-20 13:28S 33°55' E 018°27'0 0.0
2019-Dec-20 12:01S 33°55' E 018°27'3 3.5
2019-Dec-20 11:01S 33°52' E 018°27'0 0.1
2019-Dec-20 04:10S 33°52' E 018°27'0 0.0
2019-Dec-20 03:10S 33°52' E 018°27'0 0.0
2019-Dec-20 02:46S 33°52' E 018°27'0 0.0
2019-Dec-20 01:46S 33°52' E 018°27'0 0.0
2019-Dec-20 01:25S 33°52' E 018°27'0 0.0
2019-Dec-20 00:55S 33°52' E 018°27'0 0.0
2019-Dec-19 23:37S 33°52' E 018°27'0 0.0
2019-Dec-19 22:52S 33°52' E 018°27'0 0.0
2019-Dec-19 20:58S 33°52' E 018°27'0 0.0
2019-Dec-19 20:28S 33°52' E 018°27'0 0.0
2019-Dec-19 11:29S 33°52' E 018°27'0 0.0
2019-Dec-19 09:01S 33°52' E 018°27'18 6.5
2019-Dec-19 06:11S 33°57' E 018°06'12 1.1
2019-Dec-18 18:46S 34°03' E 017°53'  
Track history (hours):
 
Tides and Currents Weather Stations Pressure Air Temp Water Temp Dewpoint Dewpoint Depression Visibility Wind Speed Wind Dir Waves Ship Positions

Oceanographic research ship Agulhas (South Africa)

Detailed information on ship capabilities available from University of Delaware's Ocean Information Center.

Last reported at 2019-Dec-28 17:19 UTC. Time now 2020-Jan-24 05:01 UTC.
Position S 34°37' E 018°58'.
Warning: this ship's position is 26 days out of date.

Type: Cargo ship. MMSI: 601048000.

Date/timePositionNaut miles runAvg speedWind from/ knotsBaromVisibWave heightAir tempDewpointWater temp
2019-Dec-28 17:19S 34°37' E 018°58'7 8.8
2019-Dec-28 16:29S 34°34' E 018°50'4 8.3
2019-Dec-28 15:57S 34°33' E 018°45'7 7.6
2019-Dec-28 15:00S 34°29' E 018°37'13 6.4
2019-Dec-28 13:00S 34°24' E 018°23'9 5.9
2019-Dec-28 11:30S 34°18' E 018°15'25 6.1
2019-Dec-28 07:28S 33°55' E 018°27'0 0.0
2019-Dec-28 03:58S 33°55' E 018°27'0 0.0
2019-Dec-28 01:58S 33°55' E 018°27'0 0.0
2019-Dec-28 01:28S 33°55' E 018°27'0 0.0
2019-Dec-28 00:58S 33°55' E 018°27'0 0.0
2019-Dec-27 23:28S 33°55' E 018°27'0 0.0
2019-Dec-27 20:28S 33°55' E 018°27'0 0.0
2019-Dec-27 19:28S 33°55' E 018°27'0 0.0
2019-Dec-27 18:58S 33°55' E 018°27'0 0.0
2019-Dec-27 16:30S 33°55' E 018°27'0 0.0
2019-Dec-27 15:30S 33°55' E 018°27'0 0.0
2019-Dec-27 14:30S 33°55' E 018°27'0 0.0
2019-Dec-27 12:30S 33°55' E 018°27'0 0.0
2019-Dec-27 12:00S 33°55' E 018°27'0 0.0
2019-Dec-27 07:00S 33°55' E 018°27'0 0.0
2019-Dec-27 04:30S 33°55' E 018°27'0 0.0
2019-Dec-27 04:00S 33°55' E 018°27'0 0.0
2019-Dec-27 03:30S 33°55' E 018°27'0 0.0
2019-Dec-26 23:30S 33°55' E 018°27'0 0.0
2019-Dec-26 21:00S 33°55' E 018°27'0 0.0
2019-Dec-26 19:00S 33°55' E 018°27'0 0.0
2019-Dec-26 17:30S 33°55' E 018°27'0 0.0
2019-Dec-26 14:00S 33°55' E 018°27'0 0.0
2019-Dec-26 13:30S 33°55' E 018°27'0 0.0
2019-Dec-26 11:30S 33°55' E 018°27'0 0.0
2019-Dec-26 11:00S 33°55' E 018°27'0 0.0
2019-Dec-26 10:30S 33°55' E 018°27'0 0.0
2019-Dec-26 09:00S 33°55' E 018°27'0 0.0
2019-Dec-26 07:30S 33°55' E 018°27'0 0.0
2019-Dec-26 06:57S 33°55' E 018°27'0 0.0
2019-Dec-26 06:29S 33°55' E 018°27'0 0.0
2019-Dec-26 04:29S 33°55' E 018°27'0 0.0
2019-Dec-26 03:59S 33°55' E 018°27'0 0.0
2019-Dec-26 03:29S 33°55' E 018°27'0 0.0
2019-Dec-26 02:29S 33°55' E 018°27'0 0.0
2019-Dec-26 00:29S 33°55' E 018°27'0 0.0
2019-Dec-25 22:59S 33°55' E 018°27'0 0.0
2019-Dec-25 22:29S 33°55' E 018°27'0 0.0
2019-Dec-25 21:59S 33°55' E 018°27'0 0.0
2019-Dec-25 18:59S 33°55' E 018°27'0 0.0
2019-Dec-25 16:29S 33°55' E 018°27'0 0.0
2019-Dec-25 15:59S 33°55' E 018°27'0 0.0
2019-Dec-25 13:59S 33°55' E 018°27'0 0.0
2019-Dec-25 11:59S 33°55' E 018°27'0 0.0
2019-Dec-25 10:59S 33°55' E 018°27'0 0.0
2019-Dec-25 09:29S 33°55' E 018°27'0 0.0
2019-Dec-25 08:59S 33°55' E 018°27'0 0.0
2019-Dec-25 08:29S 33°55' E 018°27'0 0.0
2019-Dec-25 07:29S 33°55' E 018°27'0 0.0
2019-Dec-25 06:29S 33°55' E 018°27'0 0.0
2019-Dec-25 04:29S 33°55' E 018°27'0 0.0
2019-Dec-25 03:29S 33°55' E 018°27'0 0.0
2019-Dec-25 01:59S 33°55' E 018°27'0 0.0
2019-Dec-25 00:29S 33°55' E 018°27'0 0.0
2019-Dec-24 21:59S 33°55' E 018°27'0 0.0
2019-Dec-24 20:59S 33°55' E 018°27'0 0.0
2019-Dec-24 19:28S 33°55' E 018°27'0 0.0
2019-Dec-24 16:58S 33°55' E 018°27'0 0.0
2019-Dec-24 16:28S 33°55' E 018°27'0 0.0
2019-Dec-24 15:58S 33°55' E 018°27'0 0.0
2019-Dec-24 15:28S 33°55' E 018°27'0 0.0
2019-Dec-24 11:28S 33°55' E 018°27'0 0.0
2019-Dec-24 07:58S 33°55' E 018°27'0 0.0
2019-Dec-24 01:28S 33°55' E 018°27'0 0.0
2019-Dec-24 00:28S 33°55' E 018°27'0 0.0
2019-Dec-23 23:58S 33°55' E 018°27'0 0.0
2019-Dec-23 23:28S 33°55' E 018°27'0 0.0
2019-Dec-23 21:28S 33°55' E 018°27'0 0.0
2019-Dec-23 18:28S 33°55' E 018°27'0 0.0
2019-Dec-23 16:28S 33°55' E 018°27'0 0.0
2019-Dec-23 15:58S 33°55' E 018°27'0 0.0
2019-Dec-23 14:58S 33°55' E 018°27'0 0.0
2019-Dec-23 12:01S 33°55' E 018°27'0 0.0
2019-Dec-23 11:01S 33°55' E 018°27'0 0.0
2019-Dec-23 10:00S 33°55' E 018°27'0 0.0
2019-Dec-23 09:00S 33°55' E 018°27'0 0.0
2019-Dec-23 07:30S 33°55' E 018°27'0 0.0
2019-Dec-23 05:30S 33°55' E 018°27'0 0.0
2019-Dec-23 03:30S 33°55' E 018°27'0 0.0
2019-Dec-23 01:30S 33°55' E 018°27'0 0.0
2019-Dec-22 22:30S 33°55' E 018°27'0 0.0
2019-Dec-22 22:00S 33°55' E 018°27'0 0.0
2019-Dec-22 20:30S 33°55' E 018°27'0 0.0
2019-Dec-22 18:30S 33°55' E 018°27'0 0.0
2019-Dec-22 18:00S 33°55' E 018°27'0 0.0
2019-Dec-22 17:30S 33°55' E 018°27'0 0.0
2019-Dec-22 17:00S 33°55' E 018°27'0 0.0
2019-Dec-22 16:00S 33°55' E 018°27'0 0.0
2019-Dec-22 15:30S 33°55' E 018°27'0 0.0
2019-Dec-22 05:12S 33°55' E 018°27'0 0.0
2019-Dec-22 00:29S 33°55' E 018°27'0 0.0
2019-Dec-21 19:59S 33°55' E 018°27'0 0.0
2019-Dec-21 15:59S 33°55' E 018°27'0 0.0
2019-Dec-21 11:59S 33°55' E 018°27'0 0.0
2019-Dec-21 10:59S 33°55' E 018°27'0 0.0
2019-Dec-21 10:29S 33°55' E 018°27'0 0.0
2019-Dec-21 08:59S 33°55' E 018°27'0 0.0
2019-Dec-21 07:59S 33°55' E 018°27'0 0.0
2019-Dec-21 04:59S 33°55' E 018°27'0 0.0
2019-Dec-21 02:59S 33°55' E 018°27'0 0.0
2019-Dec-21 01:59S 33°55' E 018°27'0 0.0
2019-Dec-21 01:29S 33°55' E 018°27'0 0.0
2019-Dec-21 00:29S 33°55' E 018°27'0 0.0
2019-Dec-20 22:29S 33°55' E 018°27'0 0.0
2019-Dec-20 21:59S 33°55' E 018°27'0 0.0
2019-Dec-20 19:59S 33°55' E 018°27'0 0.0
2019-Dec-20 18:29S 33°55' E 018°27'0 0.0
2019-Dec-20 17:59S 33°55' E 018°27'0 0.0
2019-Dec-20 14:59S 33°55' E 018°27'0 0.0
2019-Dec-20 14:29S 33°55' E 018°27'0 0.0
2019-Dec-20 13:58S 33°55' E 018°27'0 0.0
2019-Dec-20 13:28S 33°55' E 018°27'0 0.0
2019-Dec-20 12:01S 33°55' E 018°27'3 3.5
2019-Dec-20 11:01S 33°52' E 018°27'0 0.1
2019-Dec-20 04:10S 33°52' E 018°27'0 0.0
2019-Dec-20 03:10S 33°52' E 018°27'0 0.0
2019-Dec-20 02:46S 33°52' E 018°27'0 0.0
2019-Dec-20 01:46S 33°52' E 018°27'0 0.0
2019-Dec-20 01:25S 33°52' E 018°27'0 0.0
2019-Dec-20 00:55S 33°52' E 018°27'0 0.0
2019-Dec-19 23:37S 33°52' E 018°27'0 0.0
2019-Dec-19 22:52S 33°52' E 018°27'0 0.0
2019-Dec-19 20:58S 33°52' E 018°27'0 0.0
2019-Dec-19 20:28S 33°52' E 018°27'0 0.0
2019-Dec-19 11:29S 33°52' E 018°27'0 0.0
2019-Dec-19 09:01S 33°52' E 018°27'18 6.5
2019-Dec-19 06:11S 33°57' E 018°06'12 1.1
2019-Dec-18 18:46S 34°03' E 017°53'  

Dump ship's entire track history